sensor_id;sensor_type;location;lat;lon;timestamp;P1;durP1;ratioP1;P2;durP2;ratioP2
40459;SDS011;26164;51.138;16.952;2024-02-23T00:05:09;3.05;;;1.35;;
40459;SDS011;26164;51.138;16.952;2024-02-23T01:46:55;1.65;;;0.60;;
40459;SDS011;26164;51.138;16.952;2024-02-23T01:49:33;0.90;;;0.50;;
40459;SDS011;26164;51.138;16.952;2024-02-23T01:52:09;7.05;;;0.65;;
40459;SDS011;26164;51.138;16.952;2024-02-23T01:55:17;1.15;;;0.60;;
40459;SDS011;26164;51.138;16.952;2024-02-23T01:58:36;0.98;;;0.50;;
40459;SDS011;26164;51.138;16.952;2024-02-23T02:01:03;1.92;;;0.75;;
40459;SDS011;26164;51.138;16.952;2024-02-23T02:03:29;1.83;;;0.70;;
40459;SDS011;26164;51.138;16.952;2024-02-23T02:06:01;1.40;;;0.60;;
40459;SDS011;26164;51.138;16.952;2024-02-23T02:08:28;1.05;;;0.63;;
40459;SDS011;26164;51.138;16.952;2024-02-23T02:14:32;1.95;;;0.75;;
40459;SDS011;26164;51.138;16.952;2024-02-23T02:21:52;1.88;;;0.80;;
40459;SDS011;26164;51.138;16.952;2024-02-23T02:27:41;1.85;;;0.95;;
40459;SDS011;26164;51.138;16.952;2024-02-23T02:30:11;3.08;;;1.40;;
40459;SDS011;26164;51.138;16.952;2024-02-23T02:32:40;4.18;;;1.30;;
40459;SDS011;26164;51.138;16.952;2024-02-23T02:35:10;2.90;;;1.50;;
40459;SDS011;26164;51.138;16.952;2024-02-23T02:43:31;2.90;;;1.50;;
40459;SDS011;26164;51.138;16.952;2024-02-23T02:46:19;3.60;;;2.00;;
40459;SDS011;26164;51.138;16.952;2024-02-23T02:49:09;2.72;;;1.65;;
40459;SDS011;26164;51.138;16.952;2024-02-23T02:52:15;3.42;;;1.75;;
40459;SDS011;26164;51.138;16.952;2024-02-23T02:55:03;3.95;;;1.92;;
40459;SDS011;26164;51.138;16.952;2024-02-23T02:57:44;2.78;;;1.70;;
40459;SDS011;26164;51.138;16.952;2024-02-23T03:00:31;3.30;;;1.80;;
40459;SDS011;26164;51.138;16.952;2024-02-23T03:03:20;5.38;;;2.03;;
40459;SDS011;26164;51.138;16.952;2024-02-23T03:06:05;3.17;;;1.90;;
40459;SDS011;26164;51.138;16.952;2024-02-23T03:08:47;4.38;;;2.25;;
40459;SDS011;26164;51.138;16.952;2024-02-23T03:11:16;3.42;;;2.10;;
40459;SDS011;26164;51.138;16.952;2024-02-23T03:20:19;5.63;;;3.00;;
40459;SDS011;26164;51.138;16.952;2024-02-23T03:38:00;3.60;;;2.28;;
40459;SDS011;26164;51.138;16.952;2024-02-23T03:44:29;5.47;;;2.78;;
40459;SDS011;26164;51.138;16.952;2024-02-23T03:47:39;5.03;;;3.25;;
40459;SDS011;26164;51.138;16.952;2024-02-23T03:51:01;5.32;;;3.28;;
40459;SDS011;26164;51.138;16.952;2024-02-23T03:54:10;5.40;;;3.05;;
40459;SDS011;26164;51.138;16.952;2024-02-23T03:57:12;6.30;;;3.45;;
40459;SDS011;26164;51.138;16.952;2024-02-23T04:00:01;5.95;;;3.10;;
40459;SDS011;26164;51.138;16.952;2024-02-23T04:02:57;5.70;;;3.40;;
40459;SDS011;26164;51.138;16.952;2024-02-23T04:05:53;8.65;;;4.40;;
40459;SDS011;26164;51.138;16.952;2024-02-23T04:08:39;6.43;;;3.63;;
40459;SDS011;26164;51.138;16.952;2024-02-23T04:11:29;7.32;;;3.58;;
40459;SDS011;26164;51.138;16.952;2024-02-23T04:14:35;4.65;;;2.92;;
40459;SDS011;26164;51.138;16.952;2024-02-23T04:22:30;4.32;;;2.60;;
40459;SDS011;26164;51.138;16.952;2024-02-23T04:25:06;4.15;;;2.42;;
40459;SDS011;26164;51.138;16.952;2024-02-23T04:27:32;6.35;;;2.75;;
40459;SDS011;26164;51.138;16.952;2024-02-23T04:30:02;4.00;;;2.60;;
40459;SDS011;26164;51.138;16.952;2024-02-23T04:32:28;4.07;;;2.22;;
40459;SDS011;26164;51.138;16.952;2024-02-23T04:35:00;5.05;;;2.42;;
40459;SDS011;26164;51.138;16.952;2024-02-23T04:37:27;3.60;;;2.40;;
40459;SDS011;26164;51.138;16.952;2024-02-23T04:40:10;4.80;;;2.45;;
40459;SDS011;26164;51.138;16.952;2024-02-23T04:42:40;4.65;;;2.67;;
40459;SDS011;26164;51.138;16.952;2024-02-23T04:45:10;6.28;;;2.53;;
40459;SDS011;26164;51.138;16.952;2024-02-23T04:47:47;4.18;;;2.35;;
40459;SDS011;26164;51.138;16.952;2024-02-23T04:50:14;4.60;;;2.40;;
40459;SDS011;26164;51.138;16.952;2024-02-23T04:52:56;4.07;;;2.53;;
40459;SDS011;26164;51.138;16.952;2024-02-23T04:55:25;4.13;;;2.47;;
40459;SDS011;26164;51.138;16.952;2024-02-23T04:57:52;3.53;;;2.28;;
40459;SDS011;26164;51.138;16.952;2024-02-23T05:00:40;4.82;;;2.50;;
40459;SDS011;26164;51.138;16.952;2024-02-23T05:03:26;4.20;;;2.38;;
40459;SDS011;26164;51.138;16.952;2024-02-23T05:06:13;4.32;;;2.78;;
40459;SDS011;26164;51.138;16.952;2024-02-23T05:08:57;5.38;;;2.83;;
40459;SDS011;26164;51.138;16.952;2024-02-23T05:11:32;5.53;;;3.35;;
40459;SDS011;26164;51.138;16.952;2024-02-23T05:14:13;4.78;;;2.90;;
40459;SDS011;26164;51.138;16.952;2024-02-23T05:17:17;4.30;;;2.60;;
40459;SDS011;26164;51.138;16.952;2024-02-23T05:20:24;4.18;;;2.55;;
40459;SDS011;26164;51.138;16.952;2024-02-23T05:23:43;5.55;;;3.53;;
40459;SDS011;26164;51.138;16.952;2024-02-23T05:26:16;4.45;;;2.80;;
40459;SDS011;26164;51.138;16.952;2024-02-23T07:26:43;4.88;;;1.80;;
40459;SDS011;26164;51.138;16.952;2024-02-23T07:29:55;8.43;;;2.10;;
40459;SDS011;26164;51.138;16.952;2024-02-23T07:32:48;6.25;;;1.70;;
40459;SDS011;26164;51.138;16.952;2024-02-23T07:35:41;7.57;;;1.73;;
40459;SDS011;26164;51.138;16.952;2024-02-23T07:38:50;3.95;;;1.20;;
40459;SDS011;26164;51.138;16.952;2024-02-23T07:42:06;2.65;;;1.40;;
40459;SDS011;26164;51.138;16.952;2024-02-23T07:45:01;2.83;;;1.20;;
40459;SDS011;26164;51.138;16.952;2024-02-23T07:48:13;5.57;;;1.42;;
40459;SDS011;26164;51.138;16.952;2024-02-23T07:55:39;3.08;;;1.00;;
40459;SDS011;26164;51.138;16.952;2024-02-23T08:08:22;3.25;;;0.70;;
40459;SDS011;26164;51.138;16.952;2024-02-23T08:11:17;2.83;;;0.90;;
40459;SDS011;26164;51.138;16.952;2024-02-23T08:14:25;2.65;;;0.95;;
40459;SDS011;26164;51.138;16.952;2024-02-23T08:21:19;2.75;;;1.10;;
40459;SDS011;26164;51.138;16.952;2024-02-23T08:24:25;2.17;;;1.02;;
40459;SDS011;26164;51.138;16.952;2024-02-23T08:27:24;1.98;;;0.80;;
40459;SDS011;26164;51.138;16.952;2024-02-23T08:37:48;1.73;;;0.40;;
40459;SDS011;26164;51.138;16.952;2024-02-23T08:40:52;4.85;;;0.98;;
40459;SDS011;26164;51.138;16.952;2024-02-23T08:44:03;5.13;;;0.60;;
40459;SDS011;26164;51.138;16.952;2024-02-23T08:47:06;2.88;;;0.50;;
40459;SDS011;26164;51.138;16.952;2024-02-23T08:49:55;0.90;;;0.30;;
40459;SDS011;26164;51.138;16.952;2024-02-23T08:52:46;3.25;;;0.68;;
40459;SDS011;26164;51.138;16.952;2024-02-23T08:55:44;1.75;;;0.57;;
40459;SDS011;26164;51.138;16.952;2024-02-23T08:58:40;5.03;;;0.40;;
40459;SDS011;26164;51.138;16.952;2024-02-23T09:01:30;3.35;;;0.45;;
40459;SDS011;26164;51.138;16.952;2024-02-23T09:07:32;1.30;;;0.30;;
40459;SDS011;26164;51.138;16.952;2024-02-23T09:10:14;5.72;;;0.60;;
40459;SDS011;26164;51.138;16.952;2024-02-23T09:13:06;1.55;;;0.32;;
40459;SDS011;26164;51.138;16.952;2024-02-23T09:15:59;3.58;;;0.77;;
40459;SDS011;26164;51.138;16.952;2024-02-23T09:19:03;3.60;;;0.50;;
40459;SDS011;26164;51.138;16.952;2024-02-23T09:22:20;2.70;;;0.40;;
40459;SDS011;26164;51.138;16.952;2024-02-23T09:25:00;1.55;;;0.30;;
40459;SDS011;26164;51.138;16.952;2024-02-23T09:27:32;3.08;;;1.00;;
40459;SDS011;26164;51.138;16.952;2024-02-23T09:31:01;4.05;;;0.57;;
40459;SDS011;26164;51.138;16.952;2024-02-23T09:34:25;6.88;;;0.93;;
40459;SDS011;26164;51.138;16.952;2024-02-23T09:37:30;1.88;;;0.50;;
40459;SDS011;26164;51.138;16.952;2024-02-23T09:40:40;4.88;;;0.93;;
40459;SDS011;26164;51.138;16.952;2024-02-23T09:43:43;3.65;;;0.52;;
40459;SDS011;26164;51.138;16.952;2024-02-23T09:46:34;3.28;;;0.80;;
40459;SDS011;26164;51.138;16.952;2024-02-23T09:49:30;4.05;;;0.90;;
40459;SDS011;26164;51.138;16.952;2024-02-23T09:53:11;1.02;;;0.40;;
40459;SDS011;26164;51.138;16.952;2024-02-23T09:56:02;4.43;;;0.68;;
40459;SDS011;26164;51.138;16.952;2024-02-23T09:59:07;2.75;;;0.50;;
40459;SDS011;26164;51.138;16.952;2024-02-23T10:05:39;2.60;;;0.55;;
40459;SDS011;26164;51.138;16.952;2024-02-23T10:14:56;3.28;;;0.60;;
40459;SDS011;26164;51.138;16.952;2024-02-23T10:23:21;3.03;;;0.98;;
40459;SDS011;26164;51.138;16.952;2024-02-23T10:29:36;2.75;;;0.50;;
40459;SDS011;26164;51.138;16.952;2024-02-23T10:49:08;3.42;;;0.40;;
40459;SDS011;26164;51.138;16.952;2024-02-23T11:22:34;3.03;;;0.70;;
